Time;durP1;ratioP1;P1;durP2;ratioP2;P2;SDS_P1;SDS_P2;PMS_P1;PMS_P2;Temp;Humidity;BMP_temperature;BMP_pressure;BME280_temperature;BME280_humidity;BME280_pressure;Samples;Min_cycle;Max_cycle;Signal;HPM_P1;HPM_P2
2022/01/27 00:02:31;;;;;;;27.80;10.93;;;;;;;;;;5093881;28;20501;-73
2022/01/27 00:05:14;;;;;;;27.73;13.80;;;;;;;;;;5078171;28;20463;-73
2022/01/27 00:07:41;;;;;;;17.07;9.17;;;;;;;;;;5085867;28;20494;-73
2022/01/27 00:10:17;;;;;;;12.33;7.70;;;;;;;;;;5085830;28;20517;-72
2022/01/27 00:12:44;;;;;;;25.07;11.73;;;;;;;;;;5083544;28;20553;-73
2022/01/27 00:15:13;;;;;;;17.83;8.40;;;;;;;;;;5081243;28;20778;-72
2022/01/27 00:17:48;;;;;;;28.23;13.33;;;;;;;;;;5081283;28;20459;-72
2022/01/27 00:20:15;;;;;;;21.87;7.87;;;;;;;;;;5097831;28;20529;-72
2022/01/27 00:22:43;;;;;;;27.13;13.53;;;;;;;;;;5097888;28;20507;-72
2022/01/27 00:25:10;;;;;;;32.80;15.43;;;;;;;;;;5096320;28;20520;-72
2022/01/27 00:27:38;;;;;;;18.33;10.67;;;;;;;;;;5096260;28;20467;-72
2022/01/27 00:30:05;;;;;;;27.13;13.97;;;;;;;;;;5095249;28;20440;-72
2022/01/27 00:32:32;;;;;;;40.60;19.30;;;;;;;;;;5096120;28;20517;-72
2022/01/27 00:35:00;;;;;;;19.30;11.00;;;;;;;;;;5096488;28;20627;-72
2022/01/27 00:37:28;;;;;;;16.40;9.70;;;;;;;;;;5096431;28;20475;-72
2022/01/27 00:39:55;;;;;;;34.20;15.60;;;;;;;;;;5096387;28;20447;-76
2022/01/27 00:42:23;;;;;;;31.97;15.07;;;;;;;;;;5095799;28;20851;-72
2022/01/27 00:44:50;;;;;;;27.50;13.27;;;;;;;;;;5096733;28;20455;-72
2022/01/27 00:47:17;;;;;;;25.20;13.17;;;;;;;;;;5096795;28;20455;-72
2022/01/27 00:49:45;;;;;;;18.70;11.77;;;;;;;;;;5096827;28;20443;-72
2022/01/27 00:52:16;;;;;;;26.93;13.37;;;;;;;;;;5096458;28;20459;-72
2022/01/27 00:54:44;;;;;;;34.37;15.70;;;;;;;;;;5097019;28;20483;-72
2022/01/27 00:57:17;;;;;;;22.23;13.60;;;;;;;;;;5095379;28;20554;-72
2022/01/27 00:59:53;;;;;;;45.27;18.27;;;;;;;;;;5096989;28;21019;-72
2022/01/27 01:02:30;;;;;;;42.63;16.27;;;;;;;;;;5096751;28;20538;-72
2022/01/27 01:05:11;;;;;;;26.53;12.07;;;;;;;;;;5097323;28;20454;-72
2022/01/27 01:07:42;;;;;;;39.70;16.20;;;;;;;;;;5096864;28;20865;-72
2022/01/27 01:13:50;;;;;;;52.97;19.80;;;;;;;;;;5042164;28;20886;-72
2022/01/27 01:16:02;;;;;;;23.13;11.77;;;;;;;;;;5076340;28;20436;-72
2022/01/27 01:18:41;;;;;;;28.13;15.73;;;;;;;;;;5076711;28;20876;-72
2022/01/27 01:21:30;;;;;;;37.73;17.87;;;;;;;;;;5076276;28;20480;-72
2022/01/27 01:29:52;;;;;;;32.83;14.00;;;;;;;;;;5088123;28;20700;-72
2022/01/27 01:32:30;;;;;;;41.43;20.57;;;;;;;;;;5096840;28;20459;-72
2022/01/27 01:35:00;;;;;;;37.33;17.00;;;;;;;;;;5081961;28;20476;-72
2022/01/27 01:37:27;;;;;;;29.57;14.93;;;;;;;;;;5076095;28;20499;-72
2022/01/27 01:39:55;;;;;;;28.20;13.57;;;;;;;;;;5076625;28;20448;-72
2022/01/27 01:42:23;;;;;;;21.57;13.30;;;;;;;;;;5093459;28;20587;-72
2022/01/27 01:44:50;;;;;;;35.80;16.27;;;;;;;;;;5096645;28;20454;-71
2022/01/27 01:47:20;;;;;;;43.67;18.47;;;;;;;;;;5079552;28;20457;-72
2022/01/27 01:49:47;;;;;;;25.10;14.67;;;;;;;;;;5076227;28;20502;-71
2022/01/27 01:52:14;;;;;;;25.90;14.10;;;;;;;;;;5075995;28;20565;-71
2022/01/27 01:54:41;;;;;;;36.70;16.93;;;;;;;;;;5076521;28;20484;-71
2022/01/27 01:57:09;;;;;;;38.60;16.93;;;;;;;;;;5076294;28;20541;-71
2022/01/27 01:59:38;;;;;;;30.93;16.80;;;;;;;;;;5075481;28;20460;-71
2022/01/27 02:02:05;;;;;;;25.90;12.60;;;;;;;;;;5075575;28;20900;-72
2022/01/27 02:04:32;;;;;;;23.53;10.67;;;;;;;;;;5076065;28;20456;-72
2022/01/27 02:07:02;;;;;;;43.73;19.27;;;;;;;;;;5076359;28;20529;-71
2022/01/27 02:09:47;;;;;;;35.80;14.97;;;;;;;;;;5076114;28;20845;-72
2022/01/27 02:18:01;;;;;;;36.27;14.20;;;;;;;;;;5087315;28;20581;-72
2022/01/27 02:20:29;;;;;;;27.17;13.17;;;;;;;;;;5097064;28;20452;-73
2022/01/27 02:22:56;;;;;;;27.60;14.97;;;;;;;;;;5087555;28;20558;-72
2022/01/27 02:25:23;;;;;;;19.63;12.93;;;;;;;;;;5079510;28;20456;-72
2022/01/27 02:27:53;;;;;;;27.17;12.97;;;;;;;;;;5095549;28;20701;-72
2022/01/27 02:30:20;;;;;;;25.03;13.13;;;;;;;;;;5098529;28;20447;-72
2022/01/27 02:32:47;;;;;;;29.93;15.10;;;;;;;;;;5086428;28;20464;-72
2022/01/27 02:35:14;;;;;;;26.10;14.23;;;;;;;;;;5079240;28;20634;-72
2022/01/27 02:37:42;;;;;;;17.40;9.20;;;;;;;;;;5079529;28;20463;-72
2022/01/27 02:40:12;;;;;;;24.87;12.23;;;;;;;;;;5097921;28;20530;-72
2022/01/27 02:42:39;;;;;;;28.60;12.30;;;;;;;;;;5093441;28;20899;-72
2022/01/27 02:45:09;;;;;;;28.77;12.80;;;;;;;;;;5078712;28;20460;-72
2022/01/27 02:47:36;;;;;;;23.33;12.63;;;;;;;;;;5078886;28;20492;-72
2022/01/27 02:50:04;;;;;;;36.73;18.67;;;;;;;;;;5079614;28;20770;-72
2022/01/27 02:52:31;;;;;;;24.00;13.03;;;;;;;;;;5088210;28;20710;-72
2022/01/27 02:54:59;;;;;;;23.63;11.30;;;;;;;;;;5089767;28;20934;-72
2022/01/27 02:57:26;;;;;;;39.07;17.00;;;;;;;;;;5096189;28;20554;-72
2022/01/27 02:59:54;;;;;;;30.60;15.60;;;;;;;;;;5099014;28;20451;-72
2022/01/27 03:02:23;;;;;;;25.07;11.67;;;;;;;;;;5098446;28;20722;-72
2022/01/27 03:04:51;;;;;;;27.50;13.57;;;;;;;;;;5100426;28;20747;-76
2022/01/27 03:07:18;;;;;;;24.13;8.83;;;;;;;;;;5100191;28;20872;-72
2022/01/27 03:09:45;;;;;;;36.50;14.60;;;;;;;;;;5098414;28;20456;-72
2022/01/27 03:12:13;;;;;;;25.33;13.10;;;;;;;;;;5099141;28;20459;-72
2022/01/27 03:14:41;;;;;;;42.73;17.70;;;;;;;;;;5087933;28;20480;-72
2022/01/27 03:17:08;;;;;;;27.90;12.63;;;;;;;;;;5079016;28;20460;-72
2022/01/27 03:19:36;;;;;;;20.90;12.57;;;;;;;;;;5079238;28;20453;-73
2022/01/27 03:22:04;;;;;;;17.70;11.10;;;;;;;;;;5078549;28;20468;-72
2022/01/27 03:24:32;;;;;;;31.93;16.77;;;;;;;;;;5078283;28;20481;-72
2022/01/27 03:26:59;;;;;;;22.83;11.17;;;;;;;;;;5078317;28;20467;-72
2022/01/27 03:29:27;;;;;;;22.03;13.00;;;;;;;;;;5078122;28;20515;-72
2022/01/27 03:31:55;;;;;;;22.07;8.70;;;;;;;;;;5078006;28;20457;-72
2022/01/27 03:34:22;;;;;;;27.07;13.37;;;;;;;;;;5078220;28;20496;-72
2022/01/27 03:36:50;;;;;;;34.53;14.27;;;;;;;;;;5077300;28;20460;-72
2022/01/27 03:39:22;;;;;;;26.30;13.63;;;;;;;;;;5078916;28;20449;-72
2022/01/27 03:41:51;;;;;;;28.97;13.07;;;;;;;;;;5078312;28;20456;-72
2022/01/27 03:44:18;;;;;;;21.60;11.40;;;;;;;;;;5078058;28;20472;-72
2022/01/27 03:46:46;;;;;;;22.60;8.33;;;;;;;;;;5078163;28;20729;-72
2022/01/27 03:49:13;;;;;;;31.43;16.20;;;;;;;;;;5077806;28;20449;-72
2022/01/27 03:51:40;;;;;;;22.80;14.93;;;;;;;;;;5077812;28;20635;-72
2022/01/27 03:54:07;;;;;;;29.10;11.27;;;;;;;;;;5077679;28;20499;-72
2022/01/27 03:56:34;;;;;;;28.60;12.50;;;;;;;;;;5077398;28;20902;-72
2022/01/27 03:59:01;;;;;;;33.20;16.90;;;;;;;;;;5077573;28;20884;-73
2022/01/27 04:01:30;;;;;;;26.40;12.70;;;;;;;;;;5077788;28;20487;-72
2022/01/27 04:03:59;;;;;;;31.87;12.03;;;;;;;;;;5077207;28;20460;-72
2022/01/27 04:06:33;;;;;;;28.50;9.70;;;;;;;;;;5077268;28;20929;-73
2022/01/27 04:09:00;;;;;;;48.13;19.83;;;;;;;;;;5077122;28;20452;-72
2022/01/27 04:11:28;;;;;;;21.97;13.00;;;;;;;;;;5076422;28;20749;-72
2022/01/27 04:13:55;;;;;;;28.70;14.83;;;;;;;;;;5077754;28;20495;-72
2022/01/27 04:16:22;;;;;;;36.17;14.90;;;;;;;;;;5077099;28;20448;-72
2022/01/27 04:18:49;;;;;;;29.30;13.30;;;;;;;;;;5076997;28;20862;-72
2022/01/27 04:21:17;;;;;;;19.60;11.83;;;;;;;;;;5076984;28;20495;-72
2022/01/27 04:23:44;;;;;;;35.30;16.10;;;;;;;;;;5076636;28;20452;-72
2022/01/27 04:26:15;;;;;;;28.33;12.03;;;;;;;;;;5076850;28;20911;-72
2022/01/27 04:28:43;;;;;;;12.27;10.03;;;;;;;;;;5077328;28;20448;-72
2022/01/27 04:31:11;;;;;;;18.27;11.57;;;;;;;;;;5076886;28;20479;-72
2022/01/27 04:33:39;;;;;;;22.80;12.80;;;;;;;;;;5077161;28;20453;-72
2022/01/27 04:36:13;;;;;;;19.30;11.27;;;;;;;;;;5077635;28;20507;-72
2022/01/27 04:38:47;;;;;;;14.17;10.60;;;;;;;;;;5077448;28;20443;-72
2022/01/27 04:41:19;;;;;;;21.60;9.93;;;;;;;;;;5077030;28;20452;-72
2022/01/27 04:43:52;;;;;;;41.60;11.97;;;;;;;;;;5077658;28;20955;-71
2022/01/27 04:46:28;;;;;;;17.23;9.27;;;;;;;;;;5076849;28;20486;-71
2022/01/27 04:48:58;;;;;;;24.73;14.50;;;;;;;;;;5075913;28;20460;-72
2022/01/27 04:51:26;;;;;;;30.67;14.10;;;;;;;;;;5076111;28;20463;-72
2022/01/27 04:54:04;;;;;;;30.33;15.10;;;;;;;;;;5076394;28;20580;-74
2022/01/27 04:56:42;;;;;;;26.83;14.87;;;;;;;;;;5077689;28;20717;-72
2022/01/27 04:59:17;;;;;;;23.50;13.27;;;;;;;;;;5079506;28;20452;-72
2022/01/27 05:01:48;;;;;;;31.20;13.60;;;;;;;;;;5077030;28;20550;-72
2022/01/27 05:04:18;;;;;;;29.77;15.90;;;;;;;;;;5076739;28;20543;-72
2022/01/27 05:06:47;;;;;;;18.93;11.97;;;;;;;;;;5076496;28;20460;-72
2022/01/27 05:09:16;;;;;;;13.00;9.20;;;;;;;;;;5076671;28;20793;-72
2022/01/27 05:11:49;;;;;;;33.50;11.30;;;;;;;;;;5076974;28;20452;-72
2022/01/27 05:14:19;;;;;;;27.97;15.20;;;;;;;;;;5076595;28;20488;-73
2022/01/27 05:16:46;;;;;;;24.10;13.90;;;;;;;;;;5075717;28;20448;-72
2022/01/27 05:19:14;;;;;;;27.87;13.70;;;;;;;;;;5081011;28;20498;-72
2022/01/27 05:21:42;;;;;;;26.37;13.57;;;;;;;;;;5097130;28;21159;-72
2022/01/27 05:24:10;;;;;;;19.80;12.13;;;;;;;;;;5097111;28;20894;-72
2022/01/27 05:26:38;;;;;;;24.43;10.17;;;;;;;;;;5096419;28;20471;-72
2022/01/27 05:29:09;;;;;;;17.73;9.40;;;;;;;;;;5096348;28;20465;-72
2022/01/27 05:31:36;;;;;;;26.80;13.60;;;;;;;;;;5094672;28;20459;-72
2022/01/27 05:34:04;;;;;;;22.13;13.63;;;;;;;;;;5078484;28;20504;-72
2022/01/27 05:36:31;;;;;;;12.37;9.17;;;;;;;;;;5080082;28;20449;-72
2022/01/27 05:38:59;;;;;;;24.30;12.37;;;;;;;;;;5081673;28;20458;-72
2022/01/27 05:41:26;;;;;;;16.23;9.47;;;;;;;;;;5088871;28;20497;-72
2022/01/27 05:44:08;;;;;;;13.63;7.93;;;;;;;;;;5083007;28;20452;-72
2022/01/27 05:46:44;;;;;;;19.93;11.57;;;;;;;;;;5086064;28;20451;-73
2022/01/27 05:52:00;;;;;;;24.57;13.57;;;;;;;;;;5094116;28;20443;-70
2022/01/27 05:54:35;;;;;;;30.63;12.50;;;;;;;;;;5097382;28;20584;-71
2022/01/27 05:57:14;;;;;;;21.27;12.43;;;;;;;;;;5092973;28;20470;-71
2022/01/27 05:59:43;;;;;;;14.20;12.23;;;;;;;;;;5089492;28;20515;-71
2022/01/27 06:02:24;;;;;;;19.10;10.53;;;;;;;;;;5088083;28;20464;-71
2022/01/27 06:05:02;;;;;;;22.70;12.40;;;;;;;;;;5089544;28;20801;-71
2022/01/27 06:07:34;;;;;;;15.00;10.03;;;;;;;;;;5081135;28;20772;-72
2022/01/27 06:10:14;;;;;;;15.37;7.03;;;;;;;;;;5082581;28;20455;-72
2022/01/27 06:12:48;;;;;;;21.17;12.30;;;;;;;;;;5099990;28;20477;-71
2022/01/27 06:15:17;;;;;;;17.83;11.17;;;;;;;;;;5096672;28;20483;-73
2022/01/27 06:17:44;;;;;;;16.00;10.10;;;;;;;;;;5098300;28;20537;-71
2022/01/27 06:20:12;;;;;;;16.07;7.30;;;;;;;;;;5097186;28;20467;-71
2022/01/27 06:22:39;;;;;;;13.57;9.60;;;;;;;;;;5098051;28;20439;-72
2022/01/27 06:25:07;;;;;;;11.43;7.17;;;;;;;;;;5098094;28;20490;-72
2022/01/27 06:27:35;;;;;;;23.37;11.50;;;;;;;;;;5097625;28;21046;-73
2022/01/27 06:30:02;;;;;;;19.60;9.20;;;;;;;;;;5097280;28;20573;-73
2022/01/27 06:32:30;;;;;;;16.60;10.00;;;;;;;;;;5076889;28;20464;-72
2022/01/27 06:34:57;;;;;;;23.67;10.40;;;;;;;;;;5076791;28;20484;-72
2022/01/27 06:37:24;;;;;;;11.30;7.10;;;;;;;;;;5077091;28;20456;-72
2022/01/27 06:39:54;;;;;;;12.47;6.50;;;;;;;;;;5076480;28;20457;-72
2022/01/27 06:42:21;;;;;;;15.90;9.90;;;;;;;;;;5077011;28;21002;-72
2022/01/27 06:44:48;;;;;;;17.03;10.30;;;;;;;;;;5076247;28;20539;-72
2022/01/27 06:47:16;;;;;;;25.80;12.93;;;;;;;;;;5077332;28;20540;-73
2022/01/27 06:49:44;;;;;;;17.73;8.97;;;;;;;;;;5075489;28;20449;-73
2022/01/27 06:52:11;;;;;;;19.57;10.00;;;;;;;;;;5076757;28;20460;-72
2022/01/27 06:54:42;;;;;;;10.83;7.87;;;;;;;;;;5075828;28;20556;-73
2022/01/27 06:57:13;;;;;;;24.40;12.93;;;;;;;;;;5076092;28;20459;-73
2022/01/27 06:59:40;;;;;;;16.80;9.13;;;;;;;;;;5074653;28;20544;-72
2022/01/27 07:02:08;;;;;;;19.17;11.20;;;;;;;;;;5074968;28;20455;-73
2022/01/27 07:04:35;;;;;;;13.97;8.90;;;;;;;;;;5074752;28;20623;-72
2022/01/27 07:07:03;;;;;;;19.80;11.90;;;;;;;;;;5074098;28;20513;-72
2022/01/27 07:09:31;;;;;;;16.30;9.80;;;;;;;;;;5075620;28;20877;-71
2022/01/27 07:11:58;;;;;;;9.00;5.10;;;;;;;;;;5074970;28;20464;-72
2022/01/27 07:14:25;;;;;;;18.43;11.07;;;;;;;;;;5076117;28;20743;-72
2022/01/27 07:16:52;;;;;;;14.83;7.83;;;;;;;;;;5074883;28;20459;-72
2022/01/27 07:19:19;;;;;;;21.90;10.57;;;;;;;;;;5076055;28;21201;-72
2022/01/27 07:21:46;;;;;;;18.60;9.97;;;;;;;;;;5076198;28;20480;-72
2022/01/27 07:24:14;;;;;;;18.00;10.73;;;;;;;;;;5075528;28;20472;-72
2022/01/27 07:26:41;;;;;;;17.83;6.67;;;;;;;;;;5086165;28;20463;-73
2022/01/27 07:29:09;;;;;;;15.33;8.63;;;;;;;;;;5087091;28;20456;-72
2022/01/27 07:31:36;;;;;;;11.77;8.50;;;;;;;;;;5080885;28;20460;-72
2022/01/27 07:34:03;;;;;;;12.27;9.10;;;;;;;;;;5082424;28;20942;-72
2022/01/27 07:36:33;;;;;;;22.47;13.27;;;;;;;;;;5076840;28;20899;-73
2022/01/27 07:39:02;;;;;;;22.27;9.87;;;;;;;;;;5075249;28;20440;-73
2022/01/27 07:41:32;;;;;;;14.70;8.97;;;;;;;;;;5077456;28;21025;-73
2022/01/27 07:44:15;;;;;;;21.57;11.90;;;;;;;;;;5077448;28;20449;-72
2022/01/27 07:46:43;;;;;;;22.03;10.23;;;;;;;;;;5074923;28;20472;-72
2022/01/27 07:49:10;;;;;;;22.97;11.20;;;;;;;;;;5077254;28;20460;-72
2022/01/27 07:51:37;;;;;;;18.43;10.03;;;;;;;;;;5075759;28;20887;-72
2022/01/27 07:54:07;;;;;;;18.43;11.73;;;;;;;;;;5075077;28;20491;-72
2022/01/27 07:56:35;;;;;;;15.63;7.77;;;;;;;;;;5074743;28;20452;-72
2022/01/27 07:59:03;;;;;;;15.80;9.83;;;;;;;;;;5076848;28;20487;-72
2022/01/27 08:01:32;;;;;;;19.50;11.60;;;;;;;;;;5075886;28;20448;-71
2022/01/27 08:03:59;;;;;;;22.33;12.57;;;;;;;;;;5074586;28;20714;-73
2022/01/27 08:06:26;;;;;;;9.80;6.77;;;;;;;;;;5074840;28;20463;-73
2022/01/27 08:08:53;;;;;;;17.40;10.43;;;;;;;;;;5076651;28;20440;-72
2022/01/27 08:11:21;;;;;;;8.83;6.07;;;;;;;;;;5076667;28;20873;-73
2022/01/27 08:13:49;;;;;;;16.33;10.50;;;;;;;;;;5074777;28;20527;-72
2022/01/27 08:16:16;;;;;;;14.17;8.33;;;;;;;;;;5075285;28;20456;-73
2022/01/27 08:18:43;;;;;;;12.13;7.60;;;;;;;;;;5077103;28;20445;-73
2022/01/27 08:21:11;;;;;;;14.90;10.00;;;;;;;;;;5076490;28;21043;-72
2022/01/27 08:23:41;;;;;;;12.13;7.43;;;;;;;;;;5076917;28;20444;-72
2022/01/27 08:26:14;;;;;;;14.90;9.47;;;;;;;;;;5097081;28;20477;-72
2022/01/27 08:28:46;;;;;;;20.60;11.37;;;;;;;;;;5058518;28;20477;-72
2022/01/27 08:31:17;;;;;;;16.03;10.00;;;;;;;;;;5054560;28;20612;-72
2022/01/27 08:33:44;;;;;;;11.50;6.93;;;;;;;;;;5050077;28;20460;-73
2022/01/27 08:36:12;;;;;;;14.73;8.23;;;;;;;;;;5054689;28;20500;-72
2022/01/27 08:38:43;;;;;;;14.07;9.90;;;;;;;;;;5055283;28;20445;-72
2022/01/27 08:41:10;;;;;;;12.00;9.03;;;;;;;;;;5041359;28;20450;-72
2022/01/27 08:43:38;;;;;;;14.47;10.57;;;;;;;;;;5036533;28;20541;-73
2022/01/27 08:46:05;;;;;;;21.63;11.27;;;;;;;;;;5034642;28;20789;-72
2022/01/27 08:48:46;;;;;;;9.03;6.93;;;;;;;;;;5035588;28;20465;-73
2022/01/27 08:54:19;;;;;;;15.80;9.50;;;;;;;;;;4991579;28;20502;-72
2022/01/27 08:56:55;;;;;;;13.33;7.07;;;;;;;;;;5055813;28;20476;-73
2022/01/27 08:59:22;;;;;;;14.33;9.97;;;;;;;;;;5039365;28;20909;-72
2022/01/27 09:01:49;;;;;;;20.13;8.83;;;;;;;;;;5035963;28;20821;-72
2022/01/27 09:04:17;;;;;;;11.30;8.00;;;;;;;;;;5035051;28;20506;-74
2022/01/27 09:06:47;;;;;;;10.93;6.90;;;;;;;;;;5047304;28;21016;-74
2022/01/27 09:09:14;;;;;;;15.80;9.43;;;;;;;;;;5054234;28;20754;-73
2022/01/27 09:11:46;;;;;;;14.57;9.33;;;;;;;;;;5055406;28;20924;-73
2022/01/27 09:14:29;;;;;;;13.70;9.37;;;;;;;;;;5068633;28;20476;-74
2022/01/27 09:16:57;;;;;;;13.27;7.50;;;;;;;;;;5054917;28;20456;-74
2022/01/27 09:19:27;;;;;;;11.30;6.63;;;;;;;;;;5054370;28;20472;-73
2022/01/27 09:21:59;;;;;;;9.20;5.07;;;;;;;;;;5053069;28;20466;-73
2022/01/27 09:24:39;;;;;;;12.87;8.87;;;;;;;;;;5041115;28;20485;-74
2022/01/27 09:27:10;;;;;;;12.97;7.80;;;;;;;;;;5042009;28;20441;-73
2022/01/27 09:29:38;;;;;;;8.90;5.23;;;;;;;;;;5052213;28;20488;-74
2022/01/27 09:32:06;;;;;;;8.73;6.30;;;;;;;;;;5051846;28;20461;-71
2022/01/27 09:34:34;;;;;;;11.57;7.27;;;;;;;;;;5053371;28;20477;-73
2022/01/27 09:37:04;;;;;;;10.73;7.63;;;;;;;;;;5055014;28;20523;-73
2022/01/27 09:39:38;;;;;;;12.80;7.73;;;;;;;;;;5053878;28;20484;-73
2022/01/27 09:42:06;;;;;;;17.80;8.50;;;;;;;;;;5053656;28;20450;-73
2022/01/27 09:44:41;;;;;;;13.13;7.83;;;;;;;;;;5041171;28;20813;-73
2022/01/27 09:47:18;;;;;;;14.33;9.53;;;;;;;;;;5033624;28;20484;-72
2022/01/27 09:49:52;;;;;;;10.97;6.73;;;;;;;;;;5032576;28;20858;-73
2022/01/27 09:52:34;;;;;;;10.13;6.37;;;;;;;;;;5033596;28;20462;-71
2022/01/27 09:55:17;;;;;;;7.47;6.63;;;;;;;;;;5033386;28;20490;-72
2022/01/27 09:57:48;;;;;;;11.87;5.67;;;;;;;;;;5034125;28;20469;-72
2022/01/27 10:00:16;;;;;;;15.17;9.40;;;;;;;;;;5032993;28;20443;-72
2022/01/27 10:02:58;;;;;;;15.60;7.57;;;;;;;;;;5032438;28;20904;-72
2022/01/27 10:05:32;;;;;;;13.80;5.30;;;;;;;;;;5052174;28;20488;-71
2022/01/27 10:08:04;;;;;;;5.57;3.43;;;;;;;;;;5053066;28;20449;-71
2022/01/27 10:10:39;;;;;;;11.27;6.97;;;;;;;;;;5053734;28;20522;-72
2022/01/27 10:13:08;;;;;;;9.17;5.50;;;;;;;;;;5054087;28;20468;-72
2022/01/27 10:16:00;;;;;;;12.03;5.90;;;;;;;;;;5053726;28;20528;-72
2022/01/27 10:18:34;;;;;;;17.30;8.63;;;;;;;;;;4972227;28;20461;-71
2022/01/27 10:21:12;;;;;;;10.40;5.57;;;;;;;;;;4986620;28;20458;-72
2022/01/27 10:23:40;;;;;;;7.93;5.10;;;;;;;;;;5036697;28;20502;-73
2022/01/27 10:26:16;;;;;;;10.33;7.27;;;;;;;;;;5035078;28;20520;-72
2022/01/27 10:28:46;;;;;;;11.00;4.53;;;;;;;;;;5045185;28;20530;-73
2022/01/27 10:31:19;;;;;;;7.80;5.17;;;;;;;;;;5053663;28;20446;-72
2022/01/27 10:33:53;;;;;;;8.33;5.53;;;;;;;;;;5052353;28;20489;-72
2022/01/27 10:36:23;;;;;;;7.50;4.00;;;;;;;;;;5050380;28;20453;-72
2022/01/27 10:38:56;;;;;;;8.80;6.40;;;;;;;;;;5052877;28;20919;-73
2022/01/27 10:41:24;;;;;;;8.00;5.00;;;;;;;;;;5053344;28;20889;-72
2022/01/27 10:44:05;;;;;;;7.13;4.23;;;;;;;;;;5053900;28;20781;-72
2022/01/27 10:46:48;;;;;;;16.20;6.03;;;;;;;;;;5052069;28;20461;-73
2022/01/27 10:49:28;;;;;;;13.63;8.10;;;;;;;;;;5042386;28;20469;-72
2022/01/27 10:51:56;;;;;;;9.43;6.57;;;;;;;;;;5059127;28;20445;-72
2022/01/27 10:54:34;;;;;;;14.43;7.40;;;;;;;;;;5052417;28;20551;-72
2022/01/27 10:57:02;;;;;;;11.43;6.67;;;;;;;;;;5057126;28;20456;-72
2022/01/27 10:59:45;;;;;;;11.30;5.60;;;;;;;;;;5051961;28;20459;-72
2022/01/27 11:02:18;;;;;;;11.27;6.30;;;;;;;;;;5058709;28;20453;-71
2022/01/27 11:07:59;;;;;;;15.03;8.47;;;;;;;;;;5020040;28;20888;-72
2022/01/27 11:10:26;;;;;;;12.60;7.43;;;;;;;;;;5051186;28;20497;-71
2022/01/27 11:13:18;;;;;;;;;;;;;;;;;;;;;
2022/01/27 11:15:46;;;;;;;13.43;8.93;;;;;;;;;;5054303;28;20484;-72
2022/01/27 11:18:25;;;;;;;10.90;7.67;;;;;;;;;;5045280;28;20482;-73
2022/01/27 11:20:57;;;;;;;11.43;7.40;;;;;;;;;;5037090;28;20552;-73
2022/01/27 11:24:14;;;;;;;6.83;4.30;;;;;;;;;;5037336;28;20447;-72
2022/01/27 11:27:05;;;;;;;8.50;6.03;;;;;;;;;;5035194;28;20867;-73
2022/01/27 11:29:44;;;;;;;4.57;3.47;;;;;;;;;;5055167;28;20929;-72
2022/01/27 11:32:40;;;;;;;8.20;5.37;;;;;;;;;;5057149;28;20518;-71
2022/01/27 11:35:22;;;;;;;12.03;8.23;;;;;;;;;;5055087;28;20493;-72
2022/01/27 11:37:55;;;;;;;9.00;5.33;;;;;;;;;;5055942;28;20445;-73
2022/01/27 11:40:34;;;;;;;15.50;8.93;;;;;;;;;;5049554;28;20508;-73
2022/01/27 11:43:10;;;;;;;6.37;4.20;;;;;;;;;;5037104;28;20449;-72
2022/01/27 11:45:47;;;;;;;8.87;6.77;;;;;;;;;;5044825;28;20495;-74
2022/01/27 11:48:22;;;;;;;6.03;3.50;;;;;;;;;;5041211;28;20454;-73
2022/01/27 11:50:53;;;;;;;6.83;3.27;;;;;;;;;;5037823;28;20457;-73
2022/01/27 11:56:40;;;;;;;10.60;6.07;;;;;;;;;;5050545;28;20967;-72
2022/01/27 11:59:21;;;;;;;7.17;4.13;;;;;;;;;;5051535;28;20914;-73
2022/01/27 12:01:58;;;;;;;10.77;7.70;;;;;;;;;;5055396;28;20453;-73
2022/01/27 12:04:27;;;;;;;7.07;5.20;;;;;;;;;;5034978;28;20473;-72
2022/01/27 12:07:11;;;;;;;8.20;4.13;;;;;;;;;;5049676;28;20445;-73
2022/01/27 12:09:49;;;;;;;5.40;3.93;;;;;;;;;;5043023;28;20477;-72
2022/01/27 12:12:32;;;;;;;9.70;5.60;;;;;;;;;;5036510;28;20772;-71
2022/01/27 12:15:12;;;;;;;7.27;4.57;;;;;;;;;;5037596;28;20487;-72
2022/01/27 12:17:41;;;;;;;10.03;7.00;;;;;;;;;;5053464;28;20457;-72
2022/01/27 12:20:11;;;;;;;7.60;5.60;;;;;;;;;;4558624;28;14371105;-72
2022/01/27 12:25:48;;;;;;;11.13;4.90;;;;;;;;;;5065212;28;21197;-72
2022/01/27 12:28:18;;;;;;;8.30;4.50;;;;;;;;;;5063868;28;20499;-72
2022/01/27 12:31:03;;;;;;;7.43;4.80;;;;;;;;;;5073815;28;20464;-72
2022/01/27 12:33:31;;;;;;;10.57;6.60;;;;;;;;;;5065549;28;20491;-72
2022/01/27 12:35:59;;;;;;;10.50;5.17;;;;;;;;;;5059251;28;20480;-72
2022/01/27 12:38:42;;;;;;;9.30;5.43;;;;;;;;;;5070388;28;20457;-72
2022/01/27 12:41:14;;;;;;;4.53;3.60;;;;;;;;;;5072516;28;20464;-72
2022/01/27 12:43:46;;;;;;;8.70;4.43;;;;;;;;;;5054774;28;20481;-72
2022/01/27 12:46:15;;;;;;;6.57;3.60;;;;;;;;;;5053946;28;20445;-72
2022/01/27 12:48:49;;;;;;;9.23;4.57;;;;;;;;;;5051920;28;20540;-72
2022/01/27 12:51:23;;;;;;;12.57;6.53;;;;;;;;;;5053323;28;20522;-72
2022/01/27 12:54:00;;;;;;;9.60;7.60;;;;;;;;;;5055012;28;20456;-72
2022/01/27 12:56:33;;;;;;;8.83;4.97;;;;;;;;;;5072643;28;20487;-72
2022/01/27 12:59:05;;;;;;;14.07;5.47;;;;;;;;;;5072764;28;20543;-74
2022/01/27 13:01:46;;;;;;;8.20;4.70;;;;;;;;;;5073440;28;20464;-71
2022/01/27 13:04:13;;;;;;;10.57;6.07;;;;;;;;;;5061899;28;20555;-72
2022/01/27 13:06:44;;;;;;;14.07;5.23;;;;;;;;;;5058851;28;20523;-72
2022/01/27 13:09:25;;;;;;;5.73;3.10;;;;;;;;;;5059019;28;20456;-72
2022/01/27 13:11:55;;;;;;;12.40;7.03;;;;;;;;;;5073716;28;20692;-72
2022/01/27 13:14:32;;;;;;;11.70;4.77;;;;;;;;;;5064418;28;20448;-72
2022/01/27 13:17:10;;;;;;;10.50;5.17;;;;;;;;;;5060908;28;20548;-73
2022/01/27 13:20:00;;;;;;;9.03;4.90;;;;;;;;;;5065497;28;20452;-72
2022/01/27 13:22:36;;;;;;;6.43;3.90;;;;;;;;;;5065538;28;20547;-72
2022/01/27 13:25:19;;;;;;;15.40;4.13;;;;;;;;;;5077565;28;20763;-71
2022/01/27 13:28:21;;;;;;;16.10;4.67;;;;;;;;;;5077917;28;20470;-71
2022/01/27 13:33:44;;;;;;;8.30;4.50;;;;;;;;;;5073612;28;20478;-71
2022/01/27 13:36:18;;;;;;;9.37;4.90;;;;;;;;;;5063269;28;20473;-72
2022/01/27 13:39:03;;;;;;;6.40;4.20;;;;;;;;;;5062030;28;20461;-71
2022/01/27 13:41:34;;;;;;;11.93;3.67;;;;;;;;;;5077702;28;20440;-72
2022/01/27 13:44:09;;;;;;;6.37;2.70;;;;;;;;;;5076799;28;21160;-72
2022/01/27 13:46:44;;;;;;;8.97;4.93;;;;;;;;;;5077537;28;20444;-72
2022/01/27 13:49:19;;;;;;;12.73;4.40;;;;;;;;;;5057078;28;20760;-71
2022/01/27 13:51:52;;;;;;;10.67;3.70;;;;;;;;;;5056908;28;20575;-71
2022/01/27 13:54:36;;;;;;;6.93;2.50;;;;;;;;;;5058925;28;20526;-71
2022/01/27 13:57:16;;;;;;;9.27;4.30;;;;;;;;;;5074879;28;20861;-71
2022/01/27 14:00:35;;;;;;;5.60;3.30;;;;;;;;;;5077107;28;20490;-72
2022/01/27 14:03:17;;;;;;;5.80;3.27;;;;;;;;;;5069912;28;20456;-71
2022/01/27 14:06:11;;;;;;;20.37;4.77;;;;;;;;;;5058648;28;20511;-71
2022/01/27 14:08:44;;;;;;;6.60;3.60;;;;;;;;;;5055086;28;20526;-72
2022/01/27 14:11:21;;;;;;;14.10;5.10;;;;;;;;;;5058414;28;20454;-72
2022/01/27 14:14:34;;;;;;;10.00;3.50;;;;;;;;;;5056392;28;20539;-73
2022/01/27 14:17:53;;;;;;;7.03;4.03;;;;;;;;;;5048373;28;20442;-70
2022/01/27 14:24:06;;;;;;;15.17;4.60;;;;;;;;;;5059884;28;20459;-71
2022/01/27 14:26:42;;;;;;;12.57;3.83;;;;;;;;;;5061338;28;20958;-72
2022/01/27 14:29:18;;;;;;;11.47;5.40;;;;;;;;;;5071069;28;20542;-73
2022/01/27 14:31:48;;;;;;;8.10;3.70;;;;;;;;;;5078497;28;20452;-72
2022/01/27 14:34:29;;;;;;;4.50;2.07;;;;;;;;;;5078122;28;20554;-72
2022/01/27 14:37:17;;;;;;;19.47;4.80;;;;;;;;;;5073274;28;20940;-71
2022/01/27 14:42:33;;;;;;;10.20;2.63;;;;;;;;;;5095984;28;20537;-70
2022/01/27 14:45:06;;;;;;;12.37;4.33;;;;;;;;;;5088965;28;20448;-71
2022/01/27 14:47:52;;;;;;;10.00;3.73;;;;;;;;;;5090704;28;20462;-71
2022/01/27 14:53:02;;;;;;;4.20;2.30;;;;;;;;;;5095296;28;20490;-70
2022/01/27 14:55:48;;;;;;;10.80;3.67;;;;;;;;;;5099990;28;20788;-71
2022/01/27 15:05:03;;;;;;;7.07;3.10;;;;;;;;;;5011273;28;20805;-70
2022/01/27 15:07:37;;;;;;;6.20;3.67;;;;;;;;;;5096969;28;20474;-71
2022/01/27 15:10:09;;;;;;;8.33;2.47;;;;;;;;;;5097338;28;20501;-72
2022/01/27 15:12:45;;;;;;;4.57;2.80;;;;;;;;;;5097720;28;20462;-71
2022/01/27 15:21:16;;;;;;;7.43;2.97;;;;;;;;;;5094462;28;20465;-71
2022/01/27 15:24:11;;;;;;;6.50;2.50;;;;;;;;;;5094266;28;20475;-70
2022/01/27 15:33:20;;;;;;;8.27;2.97;;;;;;;;;;5093953;28;20440;-73
2022/01/27 15:42:20;;;;;;;11.20;3.30;;;;;;;;;;5099788;28;20418;-72
2022/01/27 15:44:49;;;;;;;4.37;1.70;;;;;;;;;;5079251;28;20589;-73
2022/01/27 15:47:30;;;;;;;9.90;3.83;;;;;;;;;;5093446;28;20486;-73
2022/01/27 15:53:12;;;;;;;8.80;3.87;;;;;;;;;;5090457;28;20448;-72
2022/01/27 15:55:43;;;;;;;5.43;2.47;;;;;;;;;;5091028;28;20545;-74
2022/01/27 15:58:23;;;;;;;7.40;4.13;;;;;;;;;;5098249;28;20597;-72
2022/01/27 16:00:57;;;;;;;9.20;3.47;;;;;;;;;;5076187;28;20471;-73
2022/01/27 16:03:38;;;;;;;18.17;3.47;;;;;;;;;;5096538;28;20883;-70
2022/01/27 16:06:30;;;;;;;7.10;2.77;;;;;;;;;;5098211;28;21105;-71
2022/01/27 16:09:03;;;;;;;19.37;3.83;;;;;;;;;;5091318;28;20800;-71
2022/01/27 16:11:34;;;;;;;6.60;2.60;;;;;;;;;;5096257;28;20474;-72